Time;durP1;ratioP1;P1;durP2;ratioP2;P2;SDS_P1;SDS_P2;PMS_P1;PMS_P2;Temp;Humidity;BMP_temperature;BMP_pressure;BME280_temperature;BME280_humidity;BME280_pressure;Samples;Min_cycle;Max_cycle;Signal;HPM_P1;HPM_P2
2023/08/21 00:00:48;;;;;;;2.50;1.48;;;14.70;99.90;;;;;;5055659;28;20441;-42
2023/08/21 00:03:13;;;;;;;2.83;1.98;;;14.70;99.90;;;;;;5053942;28;20548;-41
2023/08/21 00:05:39;;;;;;;4.10;1.95;;;14.60;99.90;;;;;;5054944;28;20040;-39
2023/08/21 00:08:05;;;;;;;3.00;1.88;;;14.50;99.90;;;;;;5056041;28;20054;-42
2023/08/21 00:10:31;;;;;;;4.80;1.92;;;14.50;99.90;;;;;;5053872;28;20048;-42
2023/08/21 00:12:57;;;;;;;4.50;1.90;;;14.40;99.90;;;;;;5054134;28;20063;-43
2023/08/21 00:15:23;;;;;;;3.35;1.98;;;14.50;99.90;;;;;;5052160;28;20041;-42
2023/08/21 00:17:48;;;;;;;1.92;1.30;;;14.50;99.90;;;;;;5055269;28;20111;-45
2023/08/21 00:20:14;;;;;;;0.98;0.80;;;14.40;99.90;;;;;;5053555;28;20763;-41
2023/08/21 00:22:40;;;;;;;1.30;0.88;;;14.40;99.90;;;;;;5053796;28;20399;-41
2023/08/21 00:25:05;;;;;;;1.67;0.93;;;14.20;99.90;;;;;;5055230;28;20131;-38
2023/08/21 00:27:31;;;;;;;1.88;0.82;;;14.10;99.90;;;;;;5056086;28;20048;-43
2023/08/21 00:29:58;;;;;;;1.15;0.95;;;14.10;99.90;;;;;;5055792;28;20051;-40
2023/08/21 00:32:24;;;;;;;1.50;1.10;;;14.10;99.90;;;;;;5055320;28;20044;-45
2023/08/21 00:34:49;;;;;;;3.33;1.40;;;14.20;99.90;;;;;;5054120;28;20063;-41
2023/08/21 00:37:15;;;;;;;1.30;1.10;;;14.10;99.90;;;;;;5056345;28;20054;-39
2023/08/21 00:39:41;;;;;;;2.75;1.40;;;14.10;99.90;;;;;;5053144;28;20044;-40
2023/08/21 00:42:07;;;;;;;3.30;1.27;;;14.20;99.90;;;;;;5056562;28;20110;-39
2023/08/21 00:44:32;;;;;;;4.15;2.10;;;14.20;99.90;;;;;;5052330;28;20049;-38
2023/08/21 00:46:58;;;;;;;3.60;1.73;;;14.20;99.90;;;;;;5055666;28;20114;-42
2023/08/21 00:49:25;;;;;;;5.15;1.95;;;14.10;99.90;;;;;;5052436;28;20076;-42
2023/08/21 00:51:51;;;;;;;1.70;1.40;;;14.10;99.90;;;;;;5053694;28;20051;-42
2023/08/21 00:54:18;;;;;;;1.90;1.27;;;14.10;99.90;;;;;;5052623;28;20048;-43
2023/08/21 00:56:44;;;;;;;2.65;1.65;;;14.10;99.90;;;;;;5055633;28;20044;-41
2023/08/21 00:59:10;;;;;;;2.67;1.42;;;14.00;99.90;;;;;;5052804;28;20060;-42
2023/08/21 01:01:37;;;;;;;2.47;1.60;;;14.00;99.90;;;;;;5056315;28;20048;-38
2023/08/21 01:04:03;;;;;;;4.13;1.40;;;14.00;99.90;;;;;;5053392;28;20044;-42
2023/08/21 01:06:29;;;;;;;3.55;1.52;;;14.00;99.90;;;;;;5055478;28;20048;-40
2023/08/21 01:09:08;;;;;;;2.47;1.40;;;13.90;99.90;;;;;;5053198;28;20044;-43
2023/08/21 01:11:50;;;;;;;4.60;1.65;;;13.90;99.90;;;;;;5054121;28;20037;-40
2023/08/21 01:14:31;;;;;;;4.32;2.00;;;13.90;99.90;;;;;;5055106;28;20091;-39
2023/08/21 01:16:59;;;;;;;5.90;2.78;;;13.90;99.90;;;;;;5051204;28;20592;-39
2023/08/21 01:19:35;;;;;;;6.13;2.65;;;13.90;99.90;;;;;;5050735;28;20051;-42
2023/08/21 01:22:01;;;;;;;4.90;2.75;;;13.90;99.90;;;;;;5052592;28;20102;-44
2023/08/21 01:24:27;;;;;;;8.43;3.58;;;13.80;99.90;;;;;;5053173;28;20044;-44
2023/08/21 01:26:52;;;;;;;5.95;2.95;;;13.90;99.90;;;;;;5053834;28;20044;-39
2023/08/21 01:29:18;;;;;;;9.77;3.22;;;13.90;99.90;;;;;;5052328;28;20047;-42
2023/08/21 01:31:50;;;;;;;7.38;3.08;;;13.90;99.90;;;;;;5055293;28;20072;-40
2023/08/21 01:34:17;;;;;;;5.10;3.42;;;13.80;99.90;;;;;;5053501;28;20045;-41
2023/08/21 01:36:43;;;;;;;2.45;1.95;;;13.80;99.90;;;;;;5054202;28;20045;-42
2023/08/21 01:39:10;;;;;;;4.10;2.50;;;13.80;99.90;;;;;;5068098;28;20045;-39
2023/08/21 01:41:35;;;;;;;3.97;1.98;;;13.80;99.90;;;;;;5055794;28;20181;-42
2023/08/21 01:44:01;;;;;;;7.80;3.15;;;13.80;99.90;;;;;;5082844;27;20087;-43
2023/08/21 01:46:27;;;;;;;3.63;2.70;;;13.80;99.90;;;;;;5054542;28;20033;-43
2023/08/21 01:48:52;;;;;;;4.70;2.63;;;13.70;99.90;;;;;;5050610;28;20052;-41
2023/08/21 01:51:18;;;;;;;2.80;2.45;;;13.70;99.90;;;;;;5053302;28;20861;-40
2023/08/21 01:53:43;;;;;;;3.50;2.45;;;13.70;99.90;;;;;;5052373;28;20044;-40
2023/08/21 01:56:09;;;;;;;7.85;4.00;;;13.70;99.90;;;;;;5035696;28;20059;-39
2023/08/21 01:58:35;;;;;;;11.40;4.90;;;13.70;99.90;;;;;;5050807;28;20112;-40
2023/08/21 02:01:00;;;;;;;8.32;5.47;;;13.70;99.90;;;;;;5049047;28;20147;-39
2023/08/21 02:03:26;;;;;;;6.70;6.00;;;13.70;99.90;;;;;;5049295;28;20525;-43
2023/08/21 02:05:57;;;;;;;8.35;4.85;;;13.60;99.90;;;;;;5053007;28;20072;-41
2023/08/21 02:08:31;;;;;;;12.23;4.18;;;13.60;99.90;;;;;;5050769;28;20117;-38
2023/08/21 02:10:56;;;;;;;4.10;3.67;;;13.60;99.90;;;;;;5055280;28;20305;-40
2023/08/21 02:13:22;;;;;;;5.30;3.47;;;13.60;99.90;;;;;;5050791;28;20047;-42
2023/08/21 02:15:48;;;;;;;3.25;2.35;;;13.50;99.90;;;;;;5054033;28;20052;-44
2023/08/21 02:18:13;;;;;;;21.67;3.33;;;13.50;99.90;;;;;;5051309;28;20052;-40
2023/08/21 02:20:39;;;;;;;4.03;2.30;;;13.50;99.90;;;;;;5052385;28;20040;-40
2023/08/21 02:23:04;;;;;;;3.40;2.72;;;13.50;99.90;;;;;;5052747;28;20234;-41
2023/08/21 02:25:32;;;;;;;5.57;2.67;;;13.40;99.90;;;;;;5049542;28;20090;-39
2023/08/21 02:27:57;;;;;;;5.90;2.97;;;13.40;99.90;;;;;;5050659;28;20083;-41
2023/08/21 02:30:27;;;;;;;5.32;3.17;;;13.40;99.90;;;;;;5052476;28;20130;-41
2023/08/21 02:32:53;;;;;;;5.47;3.05;;;13.40;99.90;;;;;;5053492;28;20506;-41
2023/08/21 02:35:18;;;;;;;7.38;3.17;;;13.40;99.90;;;;;;5052275;28;20044;-39
2023/08/21 02:37:44;;;;;;;5.63;3.47;;;13.40;99.90;;;;;;5052751;28;20544;-39
2023/08/21 02:40:10;;;;;;;4.55;3.20;;;13.40;99.90;;;;;;5050765;28;20582;-42
2023/08/21 02:42:38;;;;;;;5.95;3.28;;;13.40;99.90;;;;;;5052794;28;20105;-39
2023/08/21 02:45:08;;;;;;;3.28;2.40;;;13.30;99.90;;;;;;5048657;28;20522;-40
2023/08/21 02:47:41;;;;;;;4.45;2.28;;;13.30;99.90;;;;;;5034759;28;20060;-42
2023/08/21 02:50:08;;;;;;;2.83;2.13;;;13.30;99.90;;;;;;5052331;28;20544;-42
2023/08/21 02:52:34;;;;;;;4.20;2.40;;;13.30;99.90;;;;;;5050880;28;20044;-43
2023/08/21 02:55:00;;;;;;;2.78;2.20;;;13.30;99.90;;;;;;5054231;28;20036;-41
2023/08/21 02:57:26;;;;;;;3.55;2.10;;;13.30;99.90;;;;;;5055797;28;20499;-42
2023/08/21 02:59:52;;;;;;;4.15;2.47;;;13.30;99.90;;;;;;5057593;28;20048;-43
2023/08/21 03:02:18;;;;;;;4.22;3.00;;;13.20;99.90;;;;;;5056827;28;20072;-40
2023/08/21 03:04:45;;;;;;;3.45;2.70;;;13.30;99.90;;;;;;5058203;28;20362;-42
2023/08/21 03:07:10;;;;;;;3.05;2.75;;;13.30;99.90;;;;;;5056335;28;20051;-42
2023/08/21 03:09:40;;;;;;;7.35;3.30;;;13.30;99.90;;;;;;5056320;28;20054;-41
2023/08/21 03:12:06;;;;;;;5.03;3.88;;;13.30;99.90;;;;;;5055445;28;20056;-38
2023/08/21 03:14:32;;;;;;;3.80;3.50;;;13.40;99.90;;;;;;5056681;28;20053;-42
2023/08/21 03:16:58;;;;;;;4.10;3.28;;;13.40;99.90;;;;;;5054290;28;20040;-42
2023/08/21 03:19:24;;;;;;;7.95;3.92;;;13.30;99.90;;;;;;5053191;28;20124;-38
2023/08/21 03:21:49;;;;;;;7.95;3.08;;;13.40;99.90;;;;;;5056268;28;20109;-42
2023/08/21 03:24:15;;;;;;;7.70;4.10;;;13.40;99.90;;;;;;5054965;28;20071;-42
2023/08/21 03:26:41;;;;;;;6.13;3.55;;;13.30;99.90;;;;;;5056064;28;20564;-37
2023/08/21 03:29:06;;;;;;;3.90;3.22;;;13.30;99.90;;;;;;5053475;28;20425;-42
2023/08/21 03:31:32;;;;;;;5.25;2.67;;;13.20;99.90;;;;;;5056470;28;20044;-41
2023/08/21 03:33:58;;;;;;;5.38;3.20;;;13.30;99.90;;;;;;5058013;28;20043;-40
2023/08/21 03:36:30;;;;;;;6.60;3.20;;;13.30;99.90;;;;;;5054150;28;20056;-39
2023/08/21 03:38:57;;;;;;;4.28;3.30;;;13.30;99.90;;;;;;5057210;28;20169;-38
2023/08/21 03:41:23;;;;;;;4.38;3.40;;;13.30;99.90;;;;;;5056264;28;20443;-38
2023/08/21 03:43:48;;;;;;;6.40;4.80;;;13.30;99.90;;;;;;5054871;28;20102;-39
2023/08/21 03:46:14;;;;;;;5.10;3.40;;;13.40;99.90;;;;;;5055389;28;20056;-40
2023/08/21 03:48:40;;;;;;;5.63;2.88;;;13.40;99.90;;;;;;5054743;28;20127;-40
2023/08/21 03:51:05;;;;;;;6.60;3.42;;;13.40;99.90;;;;;;5054673;28;20045;-39
2023/08/21 03:53:31;;;;;;;3.85;3.08;;;13.40;99.90;;;;;;5056591;28;20072;-43
2023/08/21 03:55:56;;;;;;;6.15;3.50;;;13.30;99.90;;;;;;5055071;28;20479;-42
2023/08/21 03:58:22;;;;;;;6.18;3.38;;;13.30;99.90;;;;;;5056696;28;20079;-41
2023/08/21 04:00:48;;;;;;;5.60;3.13;;;13.20;99.90;;;;;;5054350;28;20044;-39
2023/08/21 04:03:13;;;;;;;4.63;3.13;;;13.20;99.90;;;;;;5055839;28;20055;-40
2023/08/21 04:05:39;;;;;;;3.63;3.08;;;13.30;99.90;;;;;;5053987;28;20040;-38
2023/08/21 04:08:05;;;;;;;4.53;3.40;;;13.30;99.90;;;;;;5053096;28;20117;-42
2023/08/21 04:10:30;;;;;;;6.93;4.15;;;13.20;99.90;;;;;;5055682;28;21069;-38
2023/08/21 04:12:56;;;;;;;4.00;3.28;;;13.20;99.90;;;;;;5055218;28;20488;-38
2023/08/21 04:15:22;;;;;;;4.28;2.78;;;13.20;99.90;;;;;;5052466;28;20703;-38
2023/08/21 04:17:47;;;;;;;3.63;2.92;;;13.20;99.90;;;;;;5054409;28;20047;-42
2023/08/21 04:20:13;;;;;;;3.65;3.17;;;13.20;99.90;;;;;;5053346;28;20403;-39
2023/08/21 04:22:38;;;;;;;7.78;3.17;;;13.20;99.90;;;;;;5055893;28;20148;-40
2023/08/21 04:25:06;;;;;;;3.20;2.63;;;13.20;99.90;;;;;;5053366;28;20052;-39
2023/08/21 04:27:32;;;;;;;4.32;2.80;;;13.20;99.90;;;;;;5056288;28;20052;-40
2023/08/21 04:29:59;;;;;;;3.55;3.20;;;13.20;99.90;;;;;;5053950;28;20470;-42
2023/08/21 04:32:24;;;;;;;5.38;3.55;;;13.10;99.90;;;;;;5056844;28;20048;-41
2023/08/21 04:34:50;;;;;;;6.28;3.47;;;13.10;99.90;;;;;;5053548;28;20051;-42
2023/08/21 04:37:16;;;;;;;2.95;2.65;;;13.10;99.90;;;;;;5055217;28;20074;-37
2023/08/21 04:39:41;;;;;;;3.17;2.88;;;13.10;99.90;;;;;;5053297;28;20127;-39
2023/08/21 04:42:07;;;;;;;4.38;2.60;;;13.10;99.90;;;;;;5055089;28;20354;-41
2023/08/21 04:44:33;;;;;;;4.68;2.30;;;13.10;99.90;;;;;;5053618;28;20081;-43
2023/08/21 04:47:28;;;;;;;4.47;2.30;;;13.20;99.90;;;;;;5054093;28;20507;-42
2023/08/21 04:49:55;;;;;;;4.28;3.63;;;13.20;99.90;;;;;;5054826;28;20045;-38
2023/08/21 04:52:21;;;;;;;4.93;3.75;;;13.20;99.90;;;;;;5053597;28;20048;-38
2023/08/21 04:54:48;;;;;;;6.47;3.53;;;13.20;99.90;;;;;;5054773;28;20426;-42
2023/08/21 04:57:14;;;;;;;6.78;3.70;;;13.20;99.90;;;;;;5054293;28;20448;-40
2023/08/21 04:59:40;;;;;;;4.78;3.35;;;13.30;99.90;;;;;;5054108;28;20176;-43
2023/08/21 05:02:06;;;;;;;7.00;3.05;;;13.30;99.90;;;;;;5053940;28;20723;-39
2023/08/21 05:04:32;;;;;;;7.00;3.75;;;13.40;99.90;;;;;;5056752;28;20232;-42
2023/08/21 05:06:57;;;;;;;7.18;3.03;;;13.50;99.90;;;;;;5053869;28;20529;-40
2023/08/21 05:09:23;;;;;;;6.85;3.38;;;13.60;99.90;;;;;;5056506;28;20047;-42
2023/08/21 05:11:49;;;;;;;8.10;3.88;;;13.80;99.90;;;;;;5053755;28;20078;-42
2023/08/21 05:14:14;;;;;;;5.20;3.80;;;13.90;99.90;;;;;;5054148;28;20044;-41
2023/08/21 05:16:40;;;;;;;9.48;4.25;;;14.00;99.90;;;;;;5051917;28;20048;-42
2023/08/21 05:19:05;;;;;;;6.80;3.90;;;14.10;99.90;;;;;;5050841;28;20446;-42
2023/08/21 05:21:31;;;;;;;8.32;4.03;;;14.30;99.90;;;;;;5052504;28;20071;-42
2023/08/21 05:23:57;;;;;;;5.85;3.40;;;14.80;99.90;;;;;;5054733;28;20171;-40
2023/08/21 05:26:22;;;;;;;5.90;3.75;;;15.50;99.90;;;;;;5052187;28;20040;-40
2023/08/21 05:28:48;;;;;;;9.63;4.50;;;16.50;99.90;;;;;;5053475;28;20912;-41
2023/08/21 05:31:14;;;;;;;6.82;3.80;;;17.30;99.90;;;;;;5051113;28;20079;-40
2023/08/21 05:33:39;;;;;;;5.40;3.80;;;18.10;99.90;;;;;;5055107;28;20054;-40
2023/08/21 05:36:05;;;;;;;6.43;3.22;;;18.90;99.90;;;;;;5051417;28;20137;-42
2023/08/21 05:38:32;;;;;;;4.68;3.35;;;19.40;99.90;;;;;;5054691;28;20399;-42
2023/08/21 05:40:58;;;;;;;6.93;3.88;;;20.00;99.90;;;;;;5052015;28;20617;-43
2023/08/21 05:43:24;;;;;;;6.68;3.47;;;20.70;99.90;;;;;;5051388;28;20498;-42
2023/08/21 05:45:49;;;;;;;6.13;3.78;;;21.20;99.90;;;;;;5051412;28;20087;-39
2023/08/21 05:48:16;;;;;;;6.57;3.35;;;21.40;99.90;;;;;;5055081;28;20489;-42
2023/08/21 05:50:42;;;;;;;6.35;4.00;;;21.70;99.90;;;;;;5052873;28;20049;-40
2023/08/21 05:53:08;;;;;;;6.82;3.83;;;21.90;99.90;;;;;;5054205;28;20866;-43
2023/08/21 05:55:36;;;;;;;4.72;3.40;;;22.20;99.90;;;;;;5052212;28;20135;-45
2023/08/21 05:58:02;;;;;;;7.55;3.63;;;22.50;99.90;;;;;;5053432;28;20052;-43
2023/08/21 06:00:28;;;;;;;4.95;3.22;;;22.70;99.90;;;;;;5050161;28;20075;-41
2023/08/21 06:02:53;;;;;;;5.60;3.47;;;23.10;99.90;;;;;;5054986;28;20522;-43
2023/08/21 06:05:19;;;;;;;5.35;3.40;;;23.50;99.90;;;;;;5052172;28;20048;-42
2023/08/21 06:07:45;;;;;;;7.45;3.78;;;23.60;99.90;;;;;;5053587;28;20044;-46
2023/08/21 06:10:14;;;;;;;5.63;3.17;;;23.90;99.90;;;;;;5051852;28;20473;-47
2023/08/21 06:12:41;;;;;;;6.03;3.65;;;24.20;99.90;;;;;;5055391;28;20119;-44
2023/08/21 06:15:08;;;;;;;7.35;3.72;;;24.40;99.90;;;;;;5047887;28;20504;-41
2023/08/21 06:17:34;;;;;;;5.97;3.50;;;24.80;99.90;;;;;;5052745;28;20074;-45
2023/08/21 06:20:00;;;;;;;5.72;3.78;;;24.80;99.90;;;;;;5050557;28;20036;-41
2023/08/21 06:22:26;;;;;;;7.13;3.63;;;25.00;99.90;;;;;;5052415;28;20497;-40
2023/08/21 06:24:51;;;;;;;6.25;3.35;;;25.40;99.90;;;;;;5051948;28;20105;-41
2023/08/21 06:27:17;;;;;;;7.38;3.50;;;25.80;99.90;;;;;;5053325;28;20495;-46
2023/08/21 06:29:43;;;;;;;6.93;3.80;;;25.80;99.90;;;;;;5052316;28;20182;-43
2023/08/21 06:32:08;;;;;;;7.75;4.05;;;26.10;99.90;;;;;;5052665;28;20066;-43
2023/08/21 06:34:34;;;;;;;5.72;3.80;;;26.30;99.90;;;;;;5052078;28;20507;-43
2023/08/21 06:37:00;;;;;;;8.32;4.15;;;26.40;99.90;;;;;;5053028;28;20690;-44
2023/08/21 06:39:26;;;;;;;6.45;3.97;;;26.60;99.90;;;;;;5050494;28;20436;-44
2023/08/21 06:41:52;;;;;;;5.53;3.55;;;26.60;99.90;;;;;;5053281;28;20047;-41
2023/08/21 06:44:17;;;;;;;6.97;3.50;;;26.70;99.90;;;;;;5051275;28;20449;-44
2023/08/21 06:46:43;;;;;;;7.00;4.28;;;26.80;99.90;;;;;;5048031;28;20048;-40
2023/08/21 06:49:09;;;;;;;6.85;3.85;;;26.90;99.90;;;;;;5048849;28;20429;-43
2023/08/21 06:51:35;;;;;;;8.10;4.03;;;27.00;99.90;;;;;;5051081;28;20040;-41
2023/08/21 06:54:01;;;;;;;5.80;3.33;;;27.00;99.90;;;;;;5051313;28;20083;-45
2023/08/21 06:56:26;;;;;;;7.72;3.83;;;26.90;99.90;;;;;;5053402;28;20115;-42
2023/08/21 06:58:54;;;;;;;7.10;3.90;;;27.10;99.90;;;;;;5051957;28;20422;-46
2023/08/21 07:01:20;;;;;;;7.30;4.07;;;27.20;99.90;;;;;;5052009;28;20048;-45
2023/08/21 07:03:46;;;;;;;8.13;3.80;;;27.00;99.90;;;;;;5049114;28;20704;-44
2023/08/21 07:06:12;;;;;;;10.02;4.13;;;26.60;99.90;;;;;;5044918;28;20076;-40
2023/08/21 07:08:40;;;;;;;6.65;3.90;;;25.90;99.90;;;;;;5048322;28;20080;-40
2023/08/21 07:11:07;;;;;;;10.30;3.45;;;25.40;99.90;;;;;;5049407;28;20048;-43
2023/08/21 07:13:33;;;;;;;5.97;3.45;;;25.10;99.90;;;;;;5050174;28;20044;-40
2023/08/21 07:16:02;;;;;;;6.90;3.30;;;24.70;99.90;;;;;;5046440;28;20844;-42
2023/08/21 07:18:28;;;;;;;8.10;3.08;;;24.60;99.90;;;;;;5049331;28;20102;-45
2023/08/21 07:20:54;;;;;;;10.38;3.83;;;24.50;99.90;;;;;;5047984;28;20080;-42
2023/08/21 07:23:19;;;;;;;7.22;3.22;;;24.40;99.90;;;;;;5044937;28;20069;-45
2023/08/21 07:25:45;;;;;;;9.13;4.22;;;24.30;99.90;;;;;;5049806;28;20571;-44
2023/08/21 07:28:11;;;;;;;7.57;3.45;;;24.30;99.90;;;;;;5050996;28;20596;-43
2023/08/21 07:30:38;;;;;;;7.95;4.13;;;24.30;99.90;;;;;;5050733;28;20145;-45
2023/08/21 07:33:05;;;;;;;9.43;3.80;;;24.30;99.90;;;;;;5046715;28;20422;-44
2023/08/21 07:35:31;;;;;;;6.97;3.95;;;24.20;99.90;;;;;;5050589;28;20048;-41
2023/08/21 07:37:57;;;;;;;9.45;5.18;;;24.30;99.90;;;;;;5049493;28;20682;-41
2023/08/21 07:40:22;;;;;;;11.52;4.63;;;24.20;99.90;;;;;;5048470;28;20559;-43
2023/08/21 07:42:48;;;;;;;10.05;5.55;;;24.10;99.90;;;;;;5052023;28;20139;-45
2023/08/21 07:45:14;;;;;;;7.88;4.25;;;24.10;99.90;;;;;;5050214;28;20063;-40
2023/08/21 07:47:39;;;;;;;6.68;4.68;;;24.10;99.90;;;;;;5052130;28;20040;-41
2023/08/21 07:50:09;;;;;;;7.63;4.88;;;24.10;99.90;;;;;;5054926;28;20086;-43
2023/08/21 07:52:35;;;;;;;7.60;4.90;;;24.00;99.90;;;;;;5054484;28;20175;-40
2023/08/21 07:55:01;;;;;;;8.70;4.88;;;24.00;99.90;;;;;;5058199;28;20425;-43
2023/08/21 07:57:30;;;;;;;7.43;3.92;;;24.00;99.90;;;;;;5054724;28;20499;-42
2023/08/21 07:59:56;;;;;;;6.47;4.20;;;24.10;99.90;;;;;;5058091;28;20075;-42
2023/08/21 08:02:23;;;;;;;12.75;4.72;;;24.10;99.90;;;;;;5054849;28;20088;-41
2023/08/21 08:04:48;;;;;;;9.07;4.65;;;24.10;99.90;;;;;;5057827;28;20097;-42
2023/08/21 08:07:14;;;;;;;7.47;4.85;;;24.20;99.90;;;;;;5054298;28;20052;-42
2023/08/21 08:09:40;;;;;;;7.28;4.10;;;24.20;99.90;;;;;;5055757;28;20041;-45
2023/08/21 08:12:06;;;;;;;9.15;4.43;;;24.30;99.90;;;;;;5055019;28;20052;-44
2023/08/21 08:14:31;;;;;;;7.80;4.15;;;24.30;99.90;;;;;;5052777;28;20423;-45
2023/08/21 08:16:57;;;;;;;7.57;4.57;;;24.30;99.90;;;;;;5050304;28;20045;-42
2023/08/21 08:19:23;;;;;;;6.32;4.07;;;24.30;99.90;;;;;;5049102;28;20075;-43
2023/08/21 08:21:48;;;;;;;10.75;4.63;;;24.30;99.90;;;;;;5056645;28;20041;-42
2023/08/21 08:24:14;;;;;;;9.02;5.18;;;24.30;99.90;;;;;;5054582;28;20510;-41
2023/08/21 08:26:42;;;;;;;9.07;3.95;;;24.30;99.90;;;;;;5054237;28;20044;-42
2023/08/21 08:29:08;;;;;;;8.35;4.55;;;24.40;99.90;;;;;;5054958;28;20048;-42
2023/08/21 08:31:33;;;;;;;9.13;4.53;;;24.40;99.90;;;;;;5056537;28;20043;-45
2023/08/21 08:33:59;;;;;;;9.93;3.95;;;24.40;99.90;;;;;;5050431;28;20046;-48
2023/08/21 08:36:25;;;;;;;6.93;4.15;;;24.50;99.90;;;;;;5079786;27;20292;-46
2023/08/21 08:38:51;;;;;;;6.65;4.40;;;24.50;99.90;;;;;;5052403;28;20787;-43
2023/08/21 08:41:37;;;;;;;9.75;4.10;;;24.60;99.90;;;;;;5052039;28;20171;-44
2023/08/21 08:44:04;;;;;;;8.00;3.70;;;24.70;99.90;;;;;;5051798;28;20047;-42
2023/08/21 08:46:30;;;;;;;10.98;3.53;;;24.70;99.90;;;;;;5054194;28;20375;-42
2023/08/21 08:48:56;;;;;;;8.75;3.22;;;24.60;99.90;;;;;;5050686;28;20098;-47
2023/08/21 08:51:25;;;;;;;12.18;3.83;;;24.60;99.90;;;;;;5051585;28;20049;-45
2023/08/21 08:53:50;;;;;;;7.55;3.17;;;24.60;99.90;;;;;;5051371;28;20267;-43
2023/08/21 08:56:16;;;;;;;8.55;3.10;;;24.70;99.90;;;;;;5051820;28;20032;-42
2023/08/21 08:58:42;;;;;;;6.50;3.50;;;24.60;99.90;;;;;;5052749;28;20551;-42
2023/08/21 09:01:10;;;;;;;7.85;2.80;;;24.60;99.90;;;;;;5052684;28;21028;-47
2023/08/21 09:03:37;;;;;;;8.55;3.80;;;24.60;99.90;;;;;;5052607;28;20085;-45
2023/08/21 09:06:03;;;;;;;11.50;3.45;;;24.60;99.90;;;;;;5054625;28;20375;-46
2023/08/21 09:08:29;;;;;;;7.95;2.38;;;24.60;99.90;;;;;;5051969;28;20044;-41
2023/08/21 09:10:55;;;;;;;10.52;2.70;;;24.80;99.90;;;;;;5054702;28;20462;-42
2023/08/21 09:13:21;;;;;;;9.43;3.20;;;24.80;99.90;;;;;;5052799;28;20392;-46
2023/08/21 09:15:55;;;;;;;8.23;3.13;;;25.00;99.90;;;;;;5034203;28;20040;-44
2023/08/21 09:18:21;;;;;;;7.80;2.70;;;25.00;99.90;;;;;;5032686;28;20078;-43
2023/08/21 09:20:48;;;;;;;7.75;2.60;;;25.10;99.90;;;;;;5052590;28;20054;-46
2023/08/21 09:23:17;;;;;;;9.32;2.60;;;25.10;99.90;;;;;;5053215;28;20058;-45
2023/08/21 09:25:47;;;;;;;9.82;2.47;;;25.10;99.90;;;;;;5053232;28;20048;-43
2023/08/21 09:28:13;;;;;;;9.18;2.78;;;25.10;99.90;;;;;;5053382;28;20669;-44
2023/08/21 09:30:48;;;;;;;9.13;2.63;;;25.20;99.90;;;;;;5050785;28;20123;-42
2023/08/21 09:33:17;;;;;;;8.75;3.38;;;25.20;99.90;;;;;;5053576;28;20045;-44
2023/08/21 09:35:43;;;;;;;8.82;2.67;;;25.20;99.90;;;;;;5051081;28;20083;-45
2023/08/21 09:38:10;;;;;;;9.43;3.03;;;25.20;99.90;;;;;;5052659;28;20045;-42
2023/08/21 09:40:40;;;;;;;9.93;3.10;;;25.20;99.90;;;;;;5052068;28;20041;-42
2023/08/21 09:43:06;;;;;;;6.45;2.63;;;25.10;99.90;;;;;;5054476;28;20048;-42
2023/08/21 09:45:33;;;;;;;10.10;3.10;;;25.20;99.90;;;;;;5053022;28;20048;-45
2023/08/21 09:47:59;;;;;;;13.13;4.03;;;25.20;99.90;;;;;;5054724;28;20510;-44
2023/08/21 09:50:28;;;;;;;9.35;3.90;;;25.30;99.90;;;;;;5052936;28;20048;-49
2023/08/21 09:52:54;;;;;;;6.32;3.53;;;25.30;99.90;;;;;;5052571;28;20170;-44
2023/08/21 09:55:21;;;;;;;8.93;3.80;;;25.40;99.90;;;;;;5051868;28;20044;-46
2023/08/21 09:57:56;;;;;;;11.25;3.80;;;25.50;99.90;;;;;;5054348;28;20052;-43
2023/08/21 10:00:22;;;;;;;8.55;3.33;;;25.50;99.90;;;;;;5052100;28;20052;-44
2023/08/21 10:02:50;;;;;;;9.00;3.10;;;25.50;99.90;;;;;;5054996;28;20043;-42
2023/08/21 10:05:20;;;;;;;10.98;3.15;;;25.60;99.90;;;;;;5050036;28;20067;-43
2023/08/21 10:07:48;;;;;;;8.18;3.08;;;25.70;99.90;;;;;;5051837;28;20059;-45
2023/08/21 10:10:14;;;;;;;8.15;3.20;;;25.70;99.90;;;;;;5049425;28;20071;-44
2023/08/21 10:12:40;;;;;;;9.02;3.60;;;25.70;99.90;;;;;;5050382;28;20414;-40
2023/08/21 10:15:09;;;;;;;8.68;4.13;;;25.90;99.90;;;;;;5048187;28;20045;-48
2023/08/21 10:17:36;;;;;;;6.97;3.28;;;25.80;99.90;;;;;;5052473;28;20059;-45
2023/08/21 10:20:06;;;;;;;7.70;2.97;;;25.90;99.90;;;;;;5052369;28;20052;-50
2023/08/21 10:22:44;;;;;;;7.43;2.30;;;25.80;99.90;;;;;;5049626;28;20068;-49
2023/08/21 10:25:21;;;;;;;8.07;2.50;;;25.60;99.90;;;;;;5050898;28;20466;-43
2023/08/21 10:27:50;;;;;;;7.22;2.75;;;25.40;99.90;;;;;;5053574;28;20396;-45
2023/08/21 10:30:23;;;;;;;8.38;2.63;;;25.40;99.90;;;;;;5053812;28;21826;-43
2023/08/21 10:32:51;;;;;;;5.38;2.83;;;25.50;99.90;;;;;;5051506;28;20044;-46
2023/08/21 10:35:22;;;;;;;9.27;3.00;;;25.50;99.90;;;;;;5052956;28;20048;-48
2023/08/21 10:38:17;;;;;;;7.80;3.15;;;25.50;99.90;;;;;;5052181;28;20056;-44
2023/08/21 10:41:05;;;;;;;12.60;3.13;;;25.50;99.90;;;;;;5047067;28;20048;-42
2023/08/21 10:43:43;;;;;;;6.75;2.35;;;25.60;99.90;;;;;;5050774;28;20097;-46
2023/08/21 10:46:09;;;;;;;8.10;2.47;;;25.60;99.90;;;;;;5030493;28;20884;-43
2023/08/21 10:48:36;;;;;;;8.95;3.00;;;25.80;99.90;;;;;;5046767;28;20049;-42
2023/08/21 10:51:03;;;;;;;7.22;2.15;;;25.80;99.90;;;;;;5048814;28;20044;-46
2023/08/21 10:53:30;;;;;;;10.50;2.13;;;26.00;99.90;;;;;;5048926;28;20051;-42
2023/08/21 10:55:56;;;;;;;5.57;1.92;;;26.00;99.90;;;;;;5047060;28;20044;-47
2023/08/21 10:58:22;;;;;;;8.73;2.58;;;26.10;99.90;;;;;;5046093;28;20064;-44
2023/08/21 11:00:57;;;;;;;5.57;1.70;;;26.20;99.90;;;;;;5047224;28;20102;-48
2023/08/21 11:03:23;;;;;;;7.20;1.85;;;26.40;99.90;;;;;;5046416;28;20548;-44
2023/08/21 11:06:09;;;;;;;7.35;1.83;;;26.50;99.90;;;;;;5048687;28;20057;-42
2023/08/21 11:08:36;;;;;;;4.90;1.58;;;26.40;99.90;;;;;;5030793;28;20171;-41
2023/08/21 11:11:04;;;;;;;4.47;1.65;;;26.70;99.90;;;;;;5048237;28;20542;-44
2023/08/21 11:13:30;;;;;;;5.78;1.73;;;26.90;99.90;;;;;;5030701;28;20049;-41
2023/08/21 11:15:59;;;;;;;9.45;2.58;;;26.60;99.40;;;;;;5045665;28;20047;-43
2023/08/21 11:18:30;;;;;;;3.90;1.55;;;26.70;99.90;;;;;;5051990;28;20048;-43
2023/08/21 11:21:04;;;;;;;5.65;2.25;;;26.80;99.70;;;;;;5059425;28;20032;-44
2023/08/21 11:23:34;;;;;;;4.38;1.67;;;26.90;97.80;;;;;;5085393;27;20051;-44
2023/08/21 11:26:01;;;;;;;5.88;1.90;;;26.70;99.80;;;;;;5060002;28;20045;-45
2023/08/21 11:28:28;;;;;;;7.05;2.25;;;26.80;98.90;;;;;;5055696;28;20044;-45
2023/08/21 11:30:55;;;;;;;5.15;1.88;;;26.90;99.50;;;;;;5060394;28;20120;-45
2023/08/21 11:33:21;;;;;;;5.35;1.90;;;26.90;98.40;;;;;;5056465;28;20044;-43
2023/08/21 11:35:47;;;;;;;5.60;1.88;;;26.80;98.90;;;;;;5059301;28;20047;-47
2023/08/21 11:38:17;;;;;;;3.38;1.38;;;26.50;98.40;;;;;;5054895;28;20056;-49
2023/08/21 11:40:58;;;;;;;5.13;1.60;;;26.60;98.90;;;;;;5058008;28;20511;-44
2023/08/21 11:43:36;;;;;;;4.35;1.52;;;26.60;97.50;;;;;;5055848;28;20531;-44
2023/08/21 11:46:03;;;;;;;6.75;1.92;;;26.80;98.90;;;;;;5055904;28;20048;-44
2023/08/21 11:48:29;;;;;;;3.30;1.48;;;26.70;98.70;;;;;;5055633;28;20044;-45
2023/08/21 11:50:55;;;;;;;7.25;1.83;;;26.80;98.60;;;;;;5058135;28;20494;-45
2023/08/21 11:53:41;;;;;;;5.90;2.17;;;26.70;98.40;;;;;;5053811;28;20129;-43
2023/08/21 11:56:14;;;;;;;4.03;1.40;;;26.50;98.10;;;;;;5056571;28;20052;-43
2023/08/21 11:58:41;;;;;;;4.47;1.40;;;26.40;98.40;;;;;;5057035;28;20091;-43
2023/08/21 12:01:07;;;;;;;2.88;1.33;;;26.40;97.40;;;;;;5051288;28;20086;-42
2023/08/21 12:03:38;;;;;;;5.13;1.88;;;26.50;97.90;;;;;;5054302;28;20044;-43
2023/08/21 12:06:11;;;;;;;5.45;1.77;;;26.50;98.50;;;;;;5053761;28;20079;-47
2023/08/21 12:08:38;;;;;;;4.30;1.58;;;26.50;97.60;;;;;;5055305;28;20293;-42
2023/08/21 12:11:05;;;;;;;6.10;1.90;;;26.40;97.40;;;;;;5052830;28;20444;-46
2023/08/21 12:13:31;;;;;;;4.68;1.50;;;26.40;97.40;;;;;;5053245;28;20047;-42
2023/08/21 12:15:57;;;;;;;5.85;1.45;;;26.30;97.30;;;;;;5049974;28;20093;-43
2023/08/21 12:18:23;;;;;;;5.10;1.48;;;26.20;97.80;;;;;;5050629;28;20466;-40
2023/08/21 12:20:49;;;;;;;3.67;1.20;;;26.20;98.20;;;;;;5055543;28;20044;-46
2023/08/21 12:23:15;;;;;;;3.40;1.25;;;26.20;98.70;;;;;;5053802;28;20305;-45
2023/08/21 12:25:41;;;;;;;5.20;1.50;;;26.30;97.60;;;;;;5055381;28;20097;-40
2023/08/21 12:28:08;;;;;;;3.95;1.20;;;26.40;98.50;;;;;;5054622;28;20048;-41
2023/08/21 12:30:34;;;;;;;4.72;1.30;;;26.50;98.80;;;;;;5055611;28;20040;-45
2023/08/21 12:33:00;;;;;;;5.45;1.52;;;26.50;97.50;;;;;;5054609;28;20537;-42
2023/08/21 12:35:25;;;;;;;4.95;1.42;;;26.60;97.90;;;;;;5054899;28;20118;-47
2023/08/21 12:38:05;;;;;;;4.57;1.40;;;26.60;97.40;;;;;;5054645;28;20054;-43
2023/08/21 12:40:32;;;;;;;5.97;1.40;;;26.60;96.90;;;;;;5054473;28;20051;-43
2023/08/21 12:42:57;;;;;;;5.72;1.40;;;26.60;97.70;;;;;;5054494;28;20052;-47
2023/08/21 12:45:23;;;;;;;5.03;1.45;;;26.60;97.80;;;;;;5054962;28;20044;-46